sensor_id;sensor_type;location;lat;lon;timestamp;pressure;altitude;pressure_sealevel;temperature;humidity
2549;BME280;1284;53.520;10.248;2023-07-24T00:02:14;99641.03;;;20.84;93.25
2549;BME280;1284;53.520;10.248;2023-07-24T00:04:40;99644.09;;;20.86;93.51
2549;BME280;1284;53.520;10.248;2023-07-24T00:07:05;99644.53;;;20.85;93.62
2549;BME280;1284;53.520;10.248;2023-07-24T00:09:31;99631.44;;;20.89;93.70
2549;BME280;1284;53.520;10.248;2023-07-24T00:11:56;99635.59;;;20.93;93.37
2549;BME280;1284;53.520;10.248;2023-07-24T00:14:22;99636.50;;;20.90;93.04
2549;BME280;1284;53.520;10.248;2023-07-24T00:16:47;99633.28;;;20.83;93.74
2549;BME280;1284;53.520;10.248;2023-07-24T00:19:12;99621.28;;;20.89;93.98
2549;BME280;1284;53.520;10.248;2023-07-24T00:21:38;99629.94;;;20.88;94.14
2549;BME280;1284;53.520;10.248;2023-07-24T00:24:03;99616.84;;;20.83;94.36
2549;BME280;1284;53.520;10.248;2023-07-24T00:26:29;99627.81;;;20.83;94.69
2549;BME280;1284;53.520;10.248;2023-07-24T00:28:55;99613.03;;;20.80;94.85
2549;BME280;1284;53.520;10.248;2023-07-24T00:31:20;99615.31;;;20.82;95.01
2549;BME280;1284;53.520;10.248;2023-07-24T00:33:46;99617.66;;;20.92;94.33
2549;BME280;1284;53.520;10.248;2023-07-24T00:36:11;99620.72;;;20.94;94.30
2549;BME280;1284;53.520;10.248;2023-07-24T00:38:39;99612.59;;;20.91;94.65
2549;BME280;1284;53.520;10.248;2023-07-24T00:41:04;99611.56;;;20.88;94.80
2549;BME280;1284;53.520;10.248;2023-07-24T00:43:29;99607.88;;;20.82;95.32
2549;BME280;1284;53.520;10.248;2023-07-24T00:45:56;99613.19;;;20.86;95.40
2549;BME280;1284;53.520;10.248;2023-07-24T00:48:22;99608.66;;;20.92;95.06
2549;BME280;1284;53.520;10.248;2023-07-24T00:50:48;99601.78;;;20.87;95.53
2549;BME280;1284;53.520;10.248;2023-07-24T00:53:13;99605.00;;;20.86;95.61
2549;BME280;1284;53.520;10.248;2023-07-24T00:55:41;99605.44;;;20.84;96.21
2549;BME280;1284;53.520;10.248;2023-07-24T00:58:07;99607.13;;;20.91;95.76
2549;BME280;1284;53.520;10.248;2023-07-24T01:00:34;99604.38;;;20.91;95.34
2549;BME280;1284;53.520;10.248;2023-07-24T01:03:00;99602.72;;;20.84;95.84
2549;BME280;1284;53.520;10.248;2023-07-24T01:08:11;99607.09;;;20.82;96.26
2549;BME280;1284;53.520;10.248;2023-07-24T01:10:37;99602.97;;;20.77;96.27
2549;BME280;1284;53.520;10.248;2023-07-24T01:13:05;99611.22;;;20.86;96.38
2549;BME280;1284;53.520;10.248;2023-07-24T01:15:37;99611.06;;;20.81;96.22
2549;BME280;1284;53.520;10.248;2023-07-24T01:18:09;99603.91;;;20.83;96.23
2549;BME280;1284;53.520;10.248;2023-07-24T01:20:37;99606.81;;;20.89;96.21
2549;BME280;1284;53.520;10.248;2023-07-24T01:23:29;99605.13;;;20.82;96.60
2549;BME280;1284;53.520;10.248;2023-07-24T01:26:04;99601.63;;;20.82;96.80
2549;BME280;1284;53.520;10.248;2023-07-24T01:28:30;99599.66;;;20.82;97.10
2549;BME280;1284;53.520;10.248;2023-07-24T01:30:56;99599.50;;;20.86;96.47
2549;BME280;1284;53.520;10.248;2023-07-24T01:33:23;99595.28;;;20.94;96.44
2549;BME280;1284;53.520;10.248;2023-07-24T01:35:51;99597.25;;;20.93;96.73
2549;BME280;1284;53.520;10.248;2023-07-24T01:38:18;99601.03;;;20.87;96.37
2549;BME280;1284;53.520;10.248;2023-07-24T01:40:44;99598.75;;;20.85;96.86
2549;BME280;1284;53.520;10.248;2023-07-24T01:43:10;99601.66;;;20.91;97.05
2549;BME280;1284;53.520;10.248;2023-07-24T01:45:36;99593.63;;;20.96;96.18
2549;BME280;1284;53.520;10.248;2023-07-24T01:48:03;99591.19;;;20.98;96.40
2549;BME280;1284;53.520;10.248;2023-07-24T01:50:29;99588.88;;;20.88;97.02
2549;BME280;1284;53.520;10.248;2023-07-24T01:52:55;99593.00;;;20.92;96.52
2549;BME280;1284;53.520;10.248;2023-07-24T01:55:20;99586.63;;;20.95;96.67
2549;BME280;1284;53.520;10.248;2023-07-24T01:57:45;99582.94;;;20.89;97.24
2549;BME280;1284;53.520;10.248;2023-07-24T02:00:11;99579.59;;;20.85;97.73
2549;BME280;1284;53.520;10.248;2023-07-24T02:02:37;99592.97;;;20.83;97.68
2549;BME280;1284;53.520;10.248;2023-07-24T02:05:04;99581.44;;;20.88;97.46
2549;BME280;1284;53.520;10.248;2023-07-24T02:07:29;99586.44;;;20.90;97.78
2549;BME280;1284;53.520;10.248;2023-07-24T02:09:55;99581.44;;;20.88;97.55
2549;BME280;1284;53.520;10.248;2023-07-24T02:15:07;99583.72;;;20.90;97.75
2549;BME280;1284;53.520;10.248;2023-07-24T02:17:32;99582.31;;;20.85;97.91
2549;BME280;1284;53.520;10.248;2023-07-24T02:19:58;99575.19;;;20.88;98.09
2549;BME280;1284;53.520;10.248;2023-07-24T02:22:24;99573.53;;;20.90;98.24
2549;BME280;1284;53.520;10.248;2023-07-24T02:24:50;99580.53;;;20.91;97.94
2549;BME280;1284;53.520;10.248;2023-07-24T02:27:27;99583.84;;;20.86;97.85
2549;BME280;1284;53.520;10.248;2023-07-24T02:29:53;99569.22;;;20.80;98.43
2549;BME280;1284;53.520;10.248;2023-07-24T02:32:20;99575.19;;;20.88;98.47
2549;BME280;1284;53.520;10.248;2023-07-24T02:34:50;99575.53;;;20.99;97.65
2549;BME280;1284;53.520;10.248;2023-07-24T02:37:16;99578.72;;;20.97;97.56
2549;BME280;1284;53.520;10.248;2023-07-24T02:39:41;99577.06;;;21.00;97.55
2549;BME280;1284;53.520;10.248;2023-07-24T02:42:07;99580.38;;;20.95;97.95
2549;BME280;1284;53.520;10.248;2023-07-24T02:44:34;99585.44;;;20.96;97.93
2549;BME280;1284;53.520;10.248;2023-07-24T02:47:01;99577.31;;;20.93;98.04
2549;BME280;1284;53.520;10.248;2023-07-24T02:52:13;99582.69;;;20.96;98.24
2549;BME280;1284;53.520;10.248;2023-07-24T02:54:38;99577.81;;;21.00;97.96
2549;BME280;1284;53.520;10.248;2023-07-24T02:57:04;99581.16;;;20.95;98.28
2549;BME280;1284;53.520;10.248;2023-07-24T02:59:30;99583.56;;;20.93;98.28
2549;BME280;1284;53.520;10.248;2023-07-24T03:01:57;99584.19;;;20.97;98.13
2549;BME280;1284;53.520;10.248;2023-07-24T03:04:23;99588.03;;;21.00;97.45
2549;BME280;1284;53.520;10.248;2023-07-24T03:06:49;99585.13;;;20.94;98.15
2549;BME280;1284;53.520;10.248;2023-07-24T03:09:14;99578.59;;;21.01;97.70
2549;BME280;1284;53.520;10.248;2023-07-24T03:11:40;99585.84;;;20.95;97.75
2549;BME280;1284;53.520;10.248;2023-07-24T03:14:05;99587.53;;;20.92;98.20
2549;BME280;1284;53.520;10.248;2023-07-24T03:16:31;99588.09;;;20.87;98.27
2549;BME280;1284;53.520;10.248;2023-07-24T03:18:57;99580.22;;;20.98;97.61
2549;BME280;1284;53.520;10.248;2023-07-24T03:21:23;99582.38;;;20.94;97.92
2549;BME280;1284;53.520;10.248;2023-07-24T03:23:48;99579.63;;;20.94;98.02
2549;BME280;1284;53.520;10.248;2023-07-24T03:26:14;99580.38;;;20.95;98.01
2549;BME280;1284;53.520;10.248;2023-07-24T03:28:39;99581.16;;;20.95;97.90
2549;BME280;1284;53.520;10.248;2023-07-24T03:31:04;99574.75;;;20.98;97.52
2549;BME280;1284;53.520;10.248;2023-07-24T03:33:30;99571.72;;;20.96;97.78
2549;BME280;1284;53.520;10.248;2023-07-24T03:35:55;99575.66;;;20.95;97.65
2549;BME280;1284;53.520;10.248;2023-07-24T03:38:21;99570.25;;;21.04;96.73
2549;BME280;1284;53.520;10.248;2023-07-24T03:40:46;99572.78;;;20.99;97.05
2549;BME280;1284;53.520;10.248;2023-07-24T03:43:12;99578.56;;;20.92;97.19
2549;BME280;1284;53.520;10.248;2023-07-24T03:45:38;99571.53;;;20.91;97.54
2549;BME280;1284;53.520;10.248;2023-07-24T03:48:03;99570.91;;;20.87;97.61
2549;BME280;1284;53.520;10.248;2023-07-24T03:50:29;99573.84;;;20.92;97.29
2549;BME280;1284;53.520;10.248;2023-07-24T03:52:54;99572.75;;;20.90;97.13
2549;BME280;1284;53.520;10.248;2023-07-24T03:55:20;99573.47;;;20.81;97.75
2549;BME280;1284;53.520;10.248;2023-07-24T03:57:45;99573.53;;;20.90;97.10
2549;BME280;1284;53.520;10.248;2023-07-24T04:00:11;99573.22;;;20.88;97.21
2549;BME280;1284;53.520;10.248;2023-07-24T04:02:40;99582.94;;;20.89;96.98
2549;BME280;1284;53.520;10.248;2023-07-24T04:05:05;99584.13;;;20.79;96.73
2549;BME280;1284;53.520;10.248;2023-07-24T04:07:31;99574.69;;;20.71;97.51
2549;BME280;1284;53.520;10.248;2023-07-24T04:09:56;99588.06;;;20.78;97.52
2549;BME280;1284;53.520;10.248;2023-07-24T04:12:22;99587.59;;;20.71;97.64
2549;BME280;1284;53.520;10.248;2023-07-24T04:14:47;99585.00;;;20.67;97.75
2549;BME280;1284;53.520;10.248;2023-07-24T04:17:14;99573.75;;;20.65;97.96
2549;BME280;1284;53.520;10.248;2023-07-24T04:19:40;99572.44;;;20.79;97.01
2549;BME280;1284;53.520;10.248;2023-07-24T04:22:05;99576.38;;;20.78;96.49
2549;BME280;1284;53.520;10.248;2023-07-24T04:24:31;99572.84;;;20.77;97.19
2549;BME280;1284;53.520;10.248;2023-07-24T04:26:56;99562.81;;;20.74;97.04
2549;BME280;1284;53.520;10.248;2023-07-24T04:29:22;99554.75;;;20.71;97.54
2549;BME280;1284;53.520;10.248;2023-07-24T04:31:49;99565.06;;;20.66;97.92
2549;BME280;1284;53.520;10.248;2023-07-24T04:34:15;99563.41;;;20.69;98.18
2549;BME280;1284;53.520;10.248;2023-07-24T04:36:41;99566.47;;;20.71;97.48
2549;BME280;1284;53.520;10.248;2023-07-24T04:39:06;99565.06;;;20.66;98.16
2549;BME280;1284;53.520;10.248;2023-07-24T04:41:32;99558.53;;;20.73;98.03
2549;BME280;1284;53.520;10.248;2023-07-24T04:43:57;99560.09;;;20.83;97.69
2549;BME280;1284;53.520;10.248;2023-07-24T04:46:23;99556.56;;;20.74;97.96
2549;BME280;1284;53.520;10.248;2023-07-24T04:48:48;99561.28;;;20.73;98.27
2549;BME280;1284;53.520;10.248;2023-07-24T04:51:14;99552.97;;;20.86;97.77
2549;BME280;1284;53.520;10.248;2023-07-24T04:53:39;99554.06;;;20.88;97.57
2549;BME280;1284;53.520;10.248;2023-07-24T04:56:08;99560.63;;;21.00;97.23
2549;BME280;1284;53.520;10.248;2023-07-24T04:58:33;99555.81;;;21.04;96.75
2549;BME280;1284;53.520;10.248;2023-07-24T05:01:03;99550.56;;;20.97;96.87
2549;BME280;1284;53.520;10.248;2023-07-24T05:03:29;99550.88;;;20.99;97.29
2549;BME280;1284;53.520;10.248;2023-07-24T05:05:54;99546.06;;;21.03;97.50
2549;BME280;1284;53.520;10.248;2023-07-24T05:08:21;99547.00;;;21.09;96.89
2549;BME280;1284;53.520;10.248;2023-07-24T05:10:47;99550.19;;;21.07;96.83
2549;BME280;1284;53.520;10.248;2023-07-24T05:13:12;99541.34;;;21.03;96.79
2549;BME280;1284;53.520;10.248;2023-07-24T05:15:38;99541.50;;;21.09;97.18
2549;BME280;1284;53.520;10.248;2023-07-24T05:18:03;99539.84;;;21.11;97.07
2549;BME280;1284;53.520;10.248;2023-07-24T05:20:28;99545.81;;;21.19;96.76
2549;BME280;1284;53.520;10.248;2023-07-24T05:22:54;99542.91;;;21.22;96.91
2549;BME280;1284;53.520;10.248;2023-07-24T05:25:19;99541.41;;;21.30;95.90
2549;BME280;1284;53.520;10.248;2023-07-24T05:27:45;99541.72;;;21.41;95.24
2549;BME280;1284;53.520;10.248;2023-07-24T05:30:10;99546.28;;;21.35;95.50
2549;BME280;1284;53.520;10.248;2023-07-24T05:32:35;99540.50;;;21.42;95.22
2549;BME280;1284;53.520;10.248;2023-07-24T05:35:01;99534.25;;;21.42;95.55
2549;BME280;1284;53.520;10.248;2023-07-24T05:37:26;99535.47;;;21.59;94.83
2549;BME280;1284;53.520;10.248;2023-07-24T05:39:52;99532.28;;;21.79;93.71
2549;BME280;1284;53.520;10.248;2023-07-24T05:42:17;99531.09;;;21.89;94.29
2549;BME280;1284;53.520;10.248;2023-07-24T05:44:43;99528.97;;;21.93;93.34
2549;BME280;1284;53.520;10.248;2023-07-24T05:47:08;99531.97;;;22.04;93.16
2549;BME280;1284;53.520;10.248;2023-07-24T05:49:34;99518.88;;;22.08;92.88
2549;BME280;1284;53.520;10.248;2023-07-24T05:51:59;99512.44;;;22.20;91.89
2549;BME280;1284;53.520;10.248;2023-07-24T05:54:24;99510.63;;;22.08;91.31
2549;BME280;1284;53.520;10.248;2023-07-24T05:56:52;99505.75;;;22.03;91.54
2549;BME280;1284;53.520;10.248;2023-07-24T05:59:17;99511.41;;;22.08;90.81
2549;BME280;1284;53.520;10.248;2023-07-24T06:01:43;99513.53;;;22.13;91.00
2549;BME280;1284;53.520;10.248;2023-07-24T06:04:08;99507.75;;;22.02;91.23
2549;BME280;1284;53.520;10.248;2023-07-24T06:06:33;99517.66;;;22.00;91.22
2549;BME280;1284;53.520;10.248;2023-07-24T06:08:59;99507.94;;;21.99;91.52
2549;BME280;1284;53.520;10.248;2023-07-24T06:11:24;99506.38;;;21.98;91.34
2549;BME280;1284;53.520;10.248;2023-07-24T06:13:51;99501.38;;;21.96;92.10
2549;BME280;1284;53.520;10.248;2023-07-24T06:16:18;99506.22;;;22.01;91.50
2549;BME280;1284;53.520;10.248;2023-07-24T06:18:43;99506.38;;;21.98;91.65
2549;BME280;1284;53.520;10.248;2023-07-24T06:21:09;99499.69;;;21.99;92.08
2549;BME280;1284;53.520;10.248;2023-07-24T06:23:34;99506.66;;;22.09;91.19
2549;BME280;1284;53.520;10.248;2023-07-24T06:25:59;99501.31;;;22.14;90.53
2549;BME280;1284;53.520;10.248;2023-07-24T06:28:25;99499.03;;;22.13;90.82
2549;BME280;1284;53.520;10.248;2023-07-24T06:30:52;99506.97;;;22.11;90.78
2549;BME280;1284;53.520;10.248;2023-07-24T06:33:18;99502.22;;;22.20;90.49
2549;BME280;1284;53.520;10.248;2023-07-24T06:35:43;99502.97;;;22.21;90.39
2549;BME280;1284;53.520;10.248;2023-07-24T06:38:09;99499.94;;;22.19;89.66
2549;BME280;1284;53.520;10.248;2023-07-24T06:40:34;99496.91;;;22.17;89.85
2549;BME280;1284;53.520;10.248;2023-07-24T06:43:00;99496.75;;;22.11;89.92
2549;BME280;1284;53.520;10.248;2023-07-24T06:45:25;99494.47;;;22.10;90.05
2549;BME280;1284;53.520;10.248;2023-07-24T06:47:51;99496.00;;;22.11;89.91
2549;BME280;1284;53.520;10.248;2023-07-24T06:50:16;99492.34;;;22.14;90.15
2549;BME280;1284;53.520;10.248;2023-07-24T06:52:42;99487.75;;;22.20;90.20
2549;BME280;1284;53.520;10.248;2023-07-24T06:55:07;99496.88;;;22.26;90.03
2549;BME280;1284;53.520;10.248;2023-07-24T06:57:33;99490.41;;;22.38;88.76
2549;BME280;1284;53.520;10.248;2023-07-24T06:59:58;99498.69;;;22.29;88.90
2549;BME280;1284;53.520;10.248;2023-07-24T07:02:24;99487.88;;;22.25;88.93
2549;BME280;1284;53.520;10.248;2023-07-24T07:04:49;99497.44;;;22.30;88.28
2549;BME280;1284;53.520;10.248;2023-07-24T07:07:15;99487.88;;;22.25;88.90
2549;BME280;1284;53.520;10.248;2023-07-24T07:09:40;99497.00;;;22.31;88.93
2549;BME280;1284;53.520;10.248;2023-07-24T07:12:06;99491.34;;;22.35;89.03
2549;BME280;1284;53.520;10.248;2023-07-24T07:14:32;99485.53;;;22.42;88.80
2549;BME280;1284;53.520;10.248;2023-07-24T07:16:57;99479.00;;;22.39;88.59
2549;BME280;1284;53.520;10.248;2023-07-24T07:19:22;99487.50;;;22.41;88.59
2549;BME280;1284;53.520;10.248;2023-07-24T07:21:48;99480.56;;;22.31;88.79
2549;BME280;1284;53.520;10.248;2023-07-24T07:24:13;99482.53;;;22.31;88.70
2549;BME280;1284;53.520;10.248;2023-07-24T07:26:39;99481.28;;;22.32;89.33
2549;BME280;1284;53.520;10.248;2023-07-24T07:29:04;99472.63;;;22.33;88.43
2549;BME280;1284;53.520;10.248;2023-07-24T07:31:30;99472.63;;;22.33;88.88
2549;BME280;1284;53.520;10.248;2023-07-24T07:33:55;99478.69;;;22.37;89.09
2549;BME280;1284;53.520;10.248;2023-07-24T07:36:21;99480.03;;;22.42;88.19
2549;BME280;1284;53.520;10.248;2023-07-24T07:38:48;99479.13;;;22.45;88.20
2549;BME280;1284;53.520;10.248;2023-07-24T07:41:13;99477.41;;;22.48;88.43
2549;BME280;1284;53.520;10.248;2023-07-24T07:43:39;99476.22;;;22.49;88.41
2549;BME280;1284;53.520;10.248;2023-07-24T07:46:04;99472.09;;;22.44;87.54
2549;BME280;1284;53.520;10.248;2023-07-24T07:48:30;99479.44;;;22.47;87.69
2549;BME280;1284;53.520;10.248;2023-07-24T07:50:55;99486.28;;;22.42;87.39
2549;BME280;1284;53.520;10.248;2023-07-24T07:53:20;99489.97;;;22.39;87.63
2549;BME280;1284;53.520;10.248;2023-07-24T07:55:46;99487.22;;;22.39;87.30
2549;BME280;1284;53.520;10.248;2023-07-24T07:58:11;99487.66;;;22.38;87.51
2549;BME280;1284;53.520;10.248;2023-07-24T08:00:37;99489.38;;;22.35;87.44
2549;BME280;1284;53.520;10.248;2023-07-24T08:03:05;99488.19;;;22.27;87.81
2549;BME280;1284;53.520;10.248;2023-07-24T08:05:30;99473.41;;;22.25;88.79
2549;BME280;1284;53.520;10.248;2023-07-24T08:07:57;99482.22;;;22.29;88.85
2549;BME280;1284;53.520;10.248;2023-07-24T08:10:23;99476.41;;;22.36;88.60
2549;BME280;1284;53.520;10.248;2023-07-24T08:12:48;99479.63;;;22.34;89.18
2549;BME280;1284;53.520;10.248;2023-07-24T08:15:14;99476.41;;;22.36;89.33
2549;BME280;1284;53.520;10.248;2023-07-24T08:17:39;99466.03;;;22.40;89.31
2549;BME280;1284;53.520;10.248;2023-07-24T08:20:05;99476.81;;;22.43;89.70
2549;BME280;1284;53.520;10.248;2023-07-24T08:22:31;99478.00;;;22.52;89.13
2549;BME280;1284;53.520;10.248;2023-07-24T08:24:57;99472.06;;;22.53;89.10
2549;BME280;1284;53.520;10.248;2023-07-24T08:27:22;99471.41;;;22.67;88.25
2549;BME280;1284;53.520;10.248;2023-07-24T08:29:51;99469.53;;;22.73;87.61
2549;BME280;1284;53.520;10.248;2023-07-24T08:32:17;99469.19;;;22.80;87.35
2549;BME280;1284;53.520;10.248;2023-07-24T08:34:43;99475.94;;;22.79;88.30
2549;BME280;1284;53.520;10.248;2023-07-24T08:37:08;99466.75;;;22.82;88.10
2549;BME280;1284;53.520;10.248;2023-07-24T08:39:33;99461.63;;;22.99;87.49
2549;BME280;1284;53.520;10.248;2023-07-24T08:41:59;99457.81;;;22.96;87.57
2549;BME280;1284;53.520;10.248;2023-07-24T08:44:25;99459.84;;;23.10;87.96
2549;BME280;1284;53.520;10.248;2023-07-24T08:46:53;99458.09;;;23.22;88.05
2549;BME280;1284;53.520;10.248;2023-07-24T08:49:18;99459.56;;;23.32;87.82
2549;BME280;1284;53.520;10.248;2023-07-24T08:51:44;99450.03;;;23.42;87.98
2549;BME280;1284;53.520;10.248;2023-07-24T08:54:11;99469.00;;;23.69;85.90
2549;BME280;1284;53.520;10.248;2023-07-24T08:56:37;99473.19;;;23.65;86.03
2549;BME280;1284;53.520;10.248;2023-07-24T08:59:06;99465.00;;;23.56;86.08
2549;BME280;1284;53.520;10.248;2023-07-24T09:01:32;99464.72;;;23.54;86.22
2549;BME280;1284;53.520;10.248;2023-07-24T09:03:58;99472.75;;;23.43;86.71
2549;BME280;1284;53.520;10.248;2023-07-24T09:06:23;99460.84;;;23.46;86.17
2549;BME280;1284;53.520;10.248;2023-07-24T09:08:49;99458.00;;;23.55;86.56
2549;BME280;1284;53.520;10.248;2023-07-24T09:11:18;99459.50;;;23.56;86.34
2549;BME280;1284;53.520;10.248;2023-07-24T09:13:44;99471.44;;;23.53;86.29
2549;BME280;1284;53.520;10.248;2023-07-24T09:16:20;99466.72;;;23.53;85.87
2549;BME280;1284;53.520;10.248;2023-07-24T09:18:46;99462.72;;;23.54;86.20
2549;BME280;1284;53.520;10.248;2023-07-24T09:21:12;99460.88;;;23.75;85.82
2549;BME280;1284;53.520;10.248;2023-07-24T09:23:38;99460.91;;;24.04;85.34
2549;BME280;1284;53.520;10.248;2023-07-24T09:26:08;99460.84;;;24.33;85.11
2549;BME280;1284;53.520;10.248;2023-07-24T09:28:34;99459.56;;;24.49;84.80
2549;BME280;1284;53.520;10.248;2023-07-24T09:31:00;99463.31;;;24.80;83.46
2549;BME280;1284;53.520;10.248;2023-07-24T09:33:37;99449.53;;;24.80;82.20
2549;BME280;1284;53.520;10.248;2023-07-24T09:36:05;99449.59;;;24.51;80.86
2549;BME280;1284;53.520;10.248;2023-07-24T09:38:32;99454.75;;;24.44;81.32
2549;BME280;1284;53.520;10.248;2023-07-24T09:40:58;99444.66;;;24.55;81.72
2549;BME280;1284;53.520;10.248;2023-07-24T09:43:25;99449.47;;;24.60;80.55
2549;BME280;1284;53.520;10.248;2023-07-24T09:45:51;99446.25;;;24.62;79.73
2549;BME280;1284;53.520;10.248;2023-07-24T09:48:18;99439.22;;;24.75;80.62
2549;BME280;1284;53.520;10.248;2023-07-24T09:50:46;99439.84;;;24.85;80.46
2549;BME280;1284;53.520;10.248;2023-07-24T09:53:28;99437.34;;;24.87;79.15
2549;BME280;1284;53.520;10.248;2023-07-24T09:55:58;99459.13;;;24.70;79.62
2549;BME280;1284;53.520;10.248;2023-07-24T09:58:25;99444.38;;;24.53;80.51
2549;BME280;1284;53.520;10.248;2023-07-24T10:00:52;99434.72;;;24.43;81.57
2549;BME280;1284;53.520;10.248;2023-07-24T10:03:18;99433.63;;;24.55;81.30
2549;BME280;1284;53.520;10.248;2023-07-24T10:05:46;99434.66;;;24.72;81.36
2549;BME280;1284;53.520;10.248;2023-07-24T10:08:14;99428.88;;;24.90;80.83
2549;BME280;1284;53.520;10.248;2023-07-24T10:10:39;99421.44;;;24.96;80.82
2549;BME280;1284;53.520;10.248;2023-07-24T10:13:06;99417.81;;;25.11;80.15
2549;BME280;1284;53.520;10.248;2023-07-24T10:15:32;99416.59;;;25.12;78.36
2549;BME280;1284;53.520;10.248;2023-07-24T10:18:05;99428.44;;;25.18;76.33
2549;BME280;1284;53.520;10.248;2023-07-24T10:20:35;99432.72;;;25.19;74.40
2549;BME280;1284;53.520;10.248;2023-07-24T10:23:02;99440.31;;;25.24;73.94
2549;BME280;1284;53.520;10.248;2023-07-24T10:25:35;99434.72;;;25.18;73.87
2549;BME280;1284;53.520;10.248;2023-07-24T10:28:05;99438.50;;;25.21;73.70
2549;BME280;1284;53.520;10.248;2023-07-24T10:30:39;99426.94;;;25.17;73.07
2549;BME280;1284;53.520;10.248;2023-07-24T10:33:12;99434.53;;;25.01;74.04
2549;BME280;1284;53.520;10.248;2023-07-24T10:35:42;99433.34;;;25.08;73.92
2549;BME280;1284;53.520;10.248;2023-07-24T10:38:09;99423.50;;;25.01;74.12
2549;BME280;1284;53.520;10.248;2023-07-24T10:40:35;99422.44;;;24.99;74.97
2549;BME280;1284;53.520;10.248;2023-07-24T10:43:12;99427.00;;;24.82;75.93
2549;BME280;1284;53.520;10.248;2023-07-24T10:45:50;99430.38;;;24.71;76.25
2549;BME280;1284;53.520;10.248;2023-07-24T10:48:17;99428.47;;;24.77;76.24
2549;BME280;1284;53.520;10.248;2023-07-24T10:50:44;99423.50;;;24.81;75.99
2549;BME280;1284;53.520;10.248;2023-07-24T10:53:15;99413.00;;;24.65;75.67
2549;BME280;1284;53.520;10.248;2023-07-24T10:55:42;99415.19;;;24.61;76.60
2549;BME280;1284;53.520;10.248;2023-07-24T10:58:08;99425.34;;;24.70;76.39
2549;BME280;1284;53.520;10.248;2023-07-24T11:00:34;99429.03;;;24.81;76.63
2549;BME280;1284;53.520;10.248;2023-07-24T11:02:59;99426.94;;;24.76;77.31
2549;BME280;1284;53.520;10.248;2023-07-24T11:05:25;99432.25;;;25.00;76.54
2549;BME280;1284;53.520;10.248;2023-07-24T11:07:50;99435.00;;;25.20;75.50
2549;BME280;1284;53.520;10.248;2023-07-24T11:10:17;99428.97;;;25.42;75.03
2549;BME280;1284;53.520;10.248;2023-07-24T11:12:43;99425.53;;;25.72;73.10
2549;BME280;1284;53.520;10.248;2023-07-24T11:15:11;99423.53;;;25.73;70.39
2549;BME280;1284;53.520;10.248;2023-07-24T11:17:38;99411.22;;;25.68;70.04
2549;BME280;1284;53.520;10.248;2023-07-24T11:22:35;99409.38;;;25.60;69.45
2549;BME280;1284;53.520;10.248;2023-07-24T11:25:00;99409.25;;;25.49;69.37
2549;BME280;1284;53.520;10.248;2023-07-24T11:27:30;99401.41;;;25.42;69.57
2549;BME280;1284;53.520;10.248;2023-07-24T11:29:56;99401.94;;;25.46;69.70
2549;BME280;1284;53.520;10.248;2023-07-24T11:32:21;99396.97;;;25.50;69.45
2549;BME280;1284;53.520;10.248;2023-07-24T11:34:51;99402.75;;;25.52;69.17
2549;BME280;1284;53.520;10.248;2023-07-24T11:37:18;99389.41;;;25.45;68.40
2549;BME280;1284;53.520;10.248;2023-07-24T11:39:57;99397.81;;;25.36;69.01
2549;BME280;1284;53.520;10.248;2023-07-24T11:42:27;99395.91;;;25.22;71.08
2549;BME280;1284;53.520;10.248;2023-07-24T11:44:53;99399.78;;;25.10;72.83
2549;BME280;1284;53.520;10.248;2023-07-24T11:47:19;99392.41;;;25.01;72.27
2549;BME280;1284;53.520;10.248;2023-07-24T11:49:45;99384.53;;;24.88;73.28
2549;BME280;1284;53.520;10.248;2023-07-24T11:52:20;99395.81;;;24.90;73.48
2549;BME280;1284;53.520;10.248;2023-07-24T11:54:55;99396.38;;;24.94;73.28
2549;BME280;1284;53.520;10.248;2023-07-24T11:57:22;99397.75;;;25.04;71.83
2549;BME280;1284;53.520;10.248;2023-07-24T11:59:48;99392.84;;;24.94;72.11
2549;BME280;1284;53.520;10.248;2023-07-24T12:02:14;99389.06;;;24.91;72.95
2549;BME280;1284;53.520;10.248;2023-07-24T12:04:39;99379.25;;;25.11;73.24
2549;BME280;1284;53.520;10.248;2023-07-24T12:09:54;99395.94;;;25.73;69.95
2549;BME280;1284;53.520;10.248;2023-07-24T12:12:19;99391.28;;;26.16;67.63
2549;BME280;1284;53.520;10.248;2023-07-24T12:14:45;99382.56;;;26.28;65.77
2549;BME280;1284;53.520;10.248;2023-07-24T12:17:10;99381.28;;;26.24;65.99
2549;BME280;1284;53.520;10.248;2023-07-24T12:19:39;99373.66;;;26.08;66.96
2549;BME280;1284;53.520;10.248;2023-07-24T12:22:05;99379.59;;;26.37;66.69
2549;BME280;1284;53.520;10.248;2023-07-24T12:24:30;99375.94;;;26.57;64.18
2549;BME280;1284;53.520;10.248;2023-07-24T12:26:55;99370.31;;;26.83;62.94
2549;BME280;1284;53.520;10.248;2023-07-24T12:29:21;99377.41;;;27.00;62.95
2549;BME280;1284;53.520;10.248;2023-07-24T12:31:46;99371.59;;;26.93;63.18
2549;BME280;1284;53.520;10.248;2023-07-24T12:34:12;99370.03;;;26.75;64.35
2549;BME280;1284;53.520;10.248;2023-07-24T12:36:37;99359.97;;;26.72;64.37
2549;BME280;1284;53.520;10.248;2023-07-24T12:39:03;99348.84;;;26.61;64.88
2549;BME280;1284;53.520;10.248;2023-07-24T12:41:28;99357.91;;;26.61;65.02
2549;BME280;1284;53.520;10.248;2023-07-24T12:43:54;99358.16;;;26.63;64.44
2549;BME280;1284;53.520;10.248;2023-07-24T12:46:19;99364.53;;;26.81;62.55
2549;BME280;1284;53.520;10.248;2023-07-24T12:48:44;99357.22;;;26.83;62.52
2549;BME280;1284;53.520;10.248;2023-07-24T12:51:10;99348.41;;;26.73;64.92
2549;BME280;1284;53.520;10.248;2023-07-24T12:53:35;99343.66;;;26.79;64.68
2549;BME280;1284;53.520;10.248;2023-07-24T12:56:01;99348.41;;;26.73;63.77
2549;BME280;1284;53.520;10.248;2023-07-24T12:58:26;99347.94;;;26.75;62.52
2549;BME280;1284;53.520;10.248;2023-07-24T13:00:52;99329.47;;;26.55;63.35
2549;BME280;1284;53.520;10.248;2023-07-24T13:03:17;99315.38;;;26.48;64.53
2549;BME280;1284;53.520;10.248;2023-07-24T13:05:43;99314.59;;;26.36;67.23
2549;BME280;1284;53.520;10.248;2023-07-24T13:08:08;99308.03;;;26.34;67.07
2549;BME280;1284;53.520;10.248;2023-07-24T13:10:34;99311.56;;;26.34;67.05
2549;BME280;1284;53.520;10.248;2023-07-24T13:12:59;99306.31;;;26.42;65.92
2549;BME280;1284;53.520;10.248;2023-07-24T13:15:26;99308.31;;;26.36;65.58
2549;BME280;1284;53.520;10.248;2023-07-24T13:17:51;99300.25;;;26.32;65.66
2549;BME280;1284;53.520;10.248;2023-07-24T13:20:17;99300.97;;;26.27;67.58